Time;durP1;ratioP1;P1;durP2;ratioP2;P2;SDS_P1;SDS_P2;PMS_P1;PMS_P2;Temp;Humidity;BMP_temperature;BMP_pressure;BME280_temperature;BME280_humidity;BME280_pressure;Samples;Min_cycle;Max_cycle;Signal;HPM_P1;HPM_P2
2023/07/22 00:03:00;;;;;;;9.48;7.35;;;17.50;99.90;;;16.25;100.00;99688.63;10271078;28;96629;-89
2023/07/22 00:08:04;;;;;;;15.80;8.23;;;17.50;99.90;;;16.22;100.00;99689.06;10240203;28;96706;-89
2023/07/22 00:13:07;;;;;;;9.80;8.20;;;17.50;99.90;;;16.20;100.00;99680.44;10247096;28;96870;-90
2023/07/22 00:18:11;;;;;;;11.45;8.25;;;17.50;99.90;;;16.14;100.00;99662.53;10249264;28;98054;-90
2023/07/22 00:23:16;;;;;;;8.70;7.18;;;17.50;99.90;;;16.12;100.00;99664.59;10242561;28;99228;-91
2023/07/22 00:28:20;;;;;;;9.77;6.75;;;17.40;99.90;;;16.14;100.00;99659.84;10234562;28;96460;-91
2023/07/22 00:33:23;;;;;;;8.77;7.65;;;17.40;99.90;;;16.09;100.00;99666.91;10232913;28;98289;-90
2023/07/22 00:38:27;;;;;;;9.15;8.18;;;17.30;99.90;;;16.05;100.00;99653.91;10244573;28;98146;-90
2023/07/22 00:43:31;;;;;;;13.73;8.10;;;17.30;99.90;;;16.07;100.00;99675.13;10239288;28;96609;-91
2023/07/22 00:48:35;;;;;;;11.43;8.60;;;17.30;99.90;;;16.00;100.00;99663.63;10219626;28;98111;-90
2023/07/22 00:53:38;;;;;;;11.27;7.43;;;17.30;99.90;;;16.00;100.00;99672.50;10231591;28;96750;-89
2023/07/22 00:58:42;;;;;;;15.15;10.35;;;17.30;99.90;;;16.00;100.00;99674.34;10230848;28;97054;-90
2023/07/22 01:03:46;;;;;;;14.40;10.50;;;17.20;99.90;;;16.01;100.00;99681.34;10231210;28;97507;-90
2023/07/22 01:08:50;;;;;;;12.05;10.32;;;17.20;99.90;;;16.02;100.00;99694.56;10242154;28;97231;-91
2023/07/22 01:13:57;;;;;;;12.40;9.95;;;17.30;99.90;;;16.01;100.00;99702.78;10244799;28;97246;-91
2023/07/22 01:19:01;;;;;;;9.43;8.38;;;17.30;99.90;;;16.05;100.00;99709.38;10226415;28;97241;-92
2023/07/22 01:24:05;;;;;;;13.50;8.55;;;17.30;99.90;;;16.05;100.00;99720.09;10239226;28;98766;-90
2023/07/22 01:29:09;;;;;;;12.57;9.50;;;17.30;99.90;;;16.03;100.00;99711.47;10229254;28;96528;-90
2023/07/22 01:34:13;;;;;;;12.23;8.70;;;17.30;99.90;;;16.04;100.00;99713.09;10245547;28;98398;-90
2023/07/22 01:39:21;;;;;;;13.65;8.80;;;17.30;99.90;;;16.01;100.00;99722.41;10239196;28;96645;-91
2023/07/22 01:44:25;;;;;;;11.85;7.63;;;17.30;99.90;;;16.02;100.00;99728.59;10256274;28;97906;-90
2023/07/22 01:49:29;;;;;;;11.18;8.90;;;17.30;99.90;;;16.02;100.00;99741.97;10232609;28;98811;-91
2023/07/22 01:54:32;;;;;;;10.27;8.85;;;17.30;99.90;;;15.99;100.00;99751.25;10236309;28;97256;-90
2023/07/22 01:59:36;;;;;;;14.27;10.20;;;17.30;99.90;;;16.05;100.00;99773.69;10255521;28;96564;-90
2023/07/22 02:04:40;;;;;;;16.70;10.27;;;17.30;99.90;;;16.07;100.00;99758.22;10270545;28;96595;-91
2023/07/22 02:09:47;;;;;;;8.23;7.13;;;17.30;99.90;;;16.09;100.00;99766.88;10232886;28;96633;-91
2023/07/22 02:14:50;;;;;;;13.57;9.07;;;17.40;99.90;;;16.04;100.00;99762.16;10253360;28;97219;-90
2023/07/22 02:19:54;;;;;;;12.32;9.25;;;17.30;99.90;;;16.00;100.00;99762.78;10265115;28;96936;-89
2023/07/22 02:24:59;;;;;;;12.68;9.07;;;17.30;99.90;;;16.02;100.00;99768.78;10257295;28;96743;-90
2023/07/22 02:30:04;;;;;;;14.77;10.70;;;17.30;99.90;;;15.99;100.00;99769.19;10251065;28;97391;-90
2023/07/22 02:35:08;;;;;;;12.43;9.27;;;17.30;99.90;;;16.07;100.00;99787.69;10250257;28;96600;-90
2023/07/22 02:40:12;;;;;;;14.65;9.77;;;17.30;99.90;;;16.03;100.00;99775.78;10268171;28;96610;-89
2023/07/22 02:45:16;;;;;;;13.75;10.02;;;17.30;99.90;;;15.98;100.00;99789.81;10250648;28;96658;-90
2023/07/22 02:50:19;;;;;;;17.00;12.32;;;17.30;99.90;;;16.00;100.00;99803.00;10249311;28;96540;-89
2023/07/22 02:55:23;;;;;;;20.30;15.40;;;17.20;99.90;;;15.95;100.00;99800.13;10249292;28;96679;-90
2023/07/22 03:00:27;;;;;;;16.70;11.85;;;17.30;99.90;;;15.97;100.00;99798.06;10251321;28;97008;-90
2023/07/22 03:05:32;;;;;;;13.48;9.85;;;17.30;99.90;;;15.96;100.00;99809.84;10252530;28;98342;-90
2023/07/22 03:10:36;;;;;;;17.60;12.75;;;17.20;99.90;;;15.88;100.00;99793.97;10276822;28;96687;-90
2023/07/22 03:15:40;;;;;;;19.25;11.90;;;17.20;99.90;;;15.88;100.00;99799.31;10258922;28;96547;-90
2023/07/22 03:20:43;;;;;;;13.10;11.25;;;17.20;99.90;;;15.83;100.00;99789.25;10283006;28;97153;-90
2023/07/22 03:25:48;;;;;;;17.33;11.48;;;17.10;99.90;;;15.81;100.00;99795.84;10253393;28;96690;-89
2023/07/22 03:30:52;;;;;;;12.40;10.73;;;17.10;99.90;;;15.86;100.00;99801.41;10258199;28;96582;-90
2023/07/22 03:35:56;;;;;;;13.48;9.65;;;17.10;99.90;;;15.85;100.00;99803.28;10270566;28;96598;-90
2023/07/22 03:40:59;;;;;;;29.25;12.25;;;17.10;99.90;;;15.90;100.00;99791.91;10276385;28;96553;-89
2023/07/22 03:46:03;;;;;;;12.55;10.10;;;17.20;99.90;;;15.92;100.00;99796.03;10257025;28;96687;-90
2023/07/22 03:51:06;;;;;;;14.73;10.30;;;17.20;99.90;;;15.99;100.00;99801.34;10274659;28;96747;-89
2023/07/22 03:56:26;;;;;;;15.02;11.45;;;17.30;99.90;;;16.02;100.00;99817.84;10276734;28;96672;-91
2023/07/22 04:01:30;;;;;;;9.80;8.70;;;17.30;99.90;;;15.97;100.00;99809.59;10257101;28;97310;-92
2023/07/22 04:06:34;;;;;;;14.63;10.95;;;17.30;99.90;;;15.97;100.00;99816.81;10271311;28;98239;-92
2023/07/22 04:11:38;;;;;;;14.77;10.02;;;17.30;99.90;;;15.99;100.00;99822.78;10245474;28;99862;-92
2023/07/22 04:16:41;;;;;;;11.90;9.55;;;17.30;99.90;;;16.04;100.00;99817.63;10274090;28;96509;-92
2023/07/22 04:21:45;;;;;;;44.38;11.02;;;17.30;99.90;;;16.20;100.00;99830.56;10259170;28;97312;-92
2023/07/22 04:26:48;;;;;;;10.05;8.63;;;17.40;99.90;;;16.23;100.00;99819.38;10271382;28;97026;-91
2023/07/22 04:31:59;;;;;;;12.45;8.25;;;17.50;99.90;;;16.33;100.00;99825.13;10265527;28;96870;-91
2023/07/22 04:37:03;;;;;;;12.20;9.95;;;17.60;99.90;;;16.42;100.00;99838.25;10252716;28;97943;-91
2023/07/22 04:42:06;;;;;;;12.38;9.63;;;17.60;99.90;;;16.57;100.00;99828.06;10270113;28;97665;-90
2023/07/22 04:47:10;;;;;;;11.85;8.27;;;17.80;99.90;;;16.61;100.00;99821.22;10272029;28;96534;-91
2023/07/22 04:52:14;;;;;;;12.63;8.32;;;17.90;99.90;;;16.73;100.00;99827.59;10268614;28;98563;-91
2023/07/22 04:57:18;;;;;;;13.15;11.70;;;18.00;99.90;;;16.88;100.00;99829.97;10261321;28;97464;-90
2023/07/22 05:02:21;;;;;;;13.25;11.93;;;18.10;99.90;;;17.11;100.00;99845.47;10277967;28;96543;-90
2023/07/22 05:07:25;;;;;;;14.32;12.93;;;18.30;99.90;;;17.25;100.00;99844.31;10255363;28;96689;-91
2023/07/22 05:12:29;;;;;;;15.45;12.32;;;18.40;99.90;;;17.32;100.00;99825.44;10253732;28;97318;-90
2023/07/22 05:17:33;;;;;;;14.45;12.43;;;18.60;99.90;;;17.47;100.00;99834.00;10270509;28;97590;-90
2023/07/22 05:22:37;;;;;;;13.15;11.32;;;18.70;99.90;;;17.60;100.00;99846.47;10249365;28;98644;-90
2023/07/22 05:27:41;;;;;;;11.07;9.80;;;18.80;99.90;;;17.66;100.00;99854.47;10270192;28;96707;-92
2023/07/22 05:32:45;;;;;;;12.52;9.00;;;18.80;99.90;;;17.76;100.00;99858.56;10270727;28;96825;-90
2023/07/22 05:37:49;;;;;;;12.82;10.20;;;18.90;99.90;;;17.80;100.00;99857.84;10251059;28;97141;-92
2023/07/22 05:42:53;;;;;;;11.68;8.90;;;19.00;99.90;;;17.94;100.00;99880.06;10270518;28;96555;-90
2023/07/22 05:47:56;;;;;;;8.68;7.88;;;19.10;99.90;;;18.03;100.00;99872.50;10287842;28;97065;-90
2023/07/22 05:53:00;;;;;;;7.85;7.05;;;19.20;99.90;;;18.14;100.00;99879.81;10256111;28;98402;-91
2023/07/22 05:58:08;;;;;;;8.18;6.97;;;19.40;99.90;;;18.17;100.00;99879.38;10261116;28;96877;-90
2023/07/22 06:03:12;;;;;;;8.20;5.72;;;19.40;99.90;;;18.24;100.00;99868.56;10270903;28;96641;-91
2023/07/22 06:08:15;;;;;;;5.85;5.28;;;19.50;99.90;;;18.44;100.00;99885.25;10265299;28;97514;-89
2023/07/22 06:13:19;;;;;;;5.20;4.70;;;19.60;99.90;;;18.48;100.00;99885.63;10292043;28;98183;-90
2023/07/22 06:18:23;;;;;;;9.98;4.50;;;19.70;99.90;;;18.58;100.00;99886.69;10245411;28;98162;-90
2023/07/22 06:23:26;;;;;;;6.28;5.30;;;19.80;99.90;;;18.61;100.00;99882.75;10256136;28;97221;-90
2023/07/22 06:28:30;;;;;;;8.57;6.13;;;19.90;99.90;;;18.74;100.00;99890.66;10263261;28;98542;-88
2023/07/22 06:33:33;;;;;;;6.95;4.70;;;20.00;99.90;;;18.82;100.00;99876.06;10283061;28;97473;-90
2023/07/22 06:38:37;;;;;;;5.07;4.28;;;20.10;99.90;;;19.03;100.00;99882.81;10278234;28;96488;-91
2023/07/22 06:43:41;;;;;;;7.20;4.32;;;20.30;99.90;;;19.15;100.00;99875.56;10268632;28;96474;-89
2023/07/22 06:48:45;;;;;;;6.15;4.88;;;20.50;99.90;;;19.29;100.00;99882.38;10274423;28;97405;-89
2023/07/22 06:53:48;;;;;;;11.07;6.20;;;20.60;99.90;;;19.51;100.00;99891.53;10263556;28;96805;-89
2023/07/22 06:58:52;;;;;;;5.35;4.50;;;20.80;99.90;;;19.68;100.00;99882.78;10263068;28;96625;-89
2023/07/22 07:03:56;;;;;;;6.50;5.57;;;21.00;99.90;;;19.81;100.00;99895.19;10257212;28;98968;-89
2023/07/22 07:09:00;;;;;;;5.43;4.80;;;21.10;99.90;;;19.93;100.00;99883.34;10244567;28;96625;-90
2023/07/22 07:14:04;;;;;;;5.50;4.03;;;21.20;99.90;;;20.11;100.00;99886.94;10261074;28;96684;-90
2023/07/22 07:19:08;;;;;;;4.40;4.00;;;21.40;99.90;;;20.33;100.00;99904.13;10293366;28;96833;-90
2023/07/22 07:24:12;;;;;;;4.93;3.72;;;21.60;99.90;;;20.48;100.00;99912.56;10294727;28;98674;-89
2023/07/22 07:29:16;;;;;;;4.47;3.65;;;21.80;99.90;;;20.64;100.00;99910.19;10277449;28;97737;-89
2023/07/22 07:34:39;;;;;;;4.55;3.83;;;22.00;99.90;;;20.71;97.38;99921.66;10265983;28;96550;-89
2023/07/22 07:39:43;;;;;;;5.13;3.55;;;22.00;99.90;;;20.82;98.98;99921.59;10267160;28;96654;-91
2023/07/22 07:44:46;;;;;;;6.07;3.63;;;22.20;99.90;;;20.88;93.49;99927.91;10280571;28;96632;-87
2023/07/22 07:49:50;;;;;;;6.95;4.03;;;22.30;99.90;;;20.91;90.45;99932.00;10270514;28;98413;-93
2023/07/22 07:54:53;;;;;;;4.55;3.42;;;22.30;99.90;;;20.95;91.30;99938.56;10277530;28;96528;-95
2023/07/22 07:59:57;;;;;;;4.60;3.70;;;22.40;99.90;;;21.06;90.44;99957.44;10276819;28;97018;-95
2023/07/22 08:05:05;;;;;;;4.03;3.17;;;22.40;99.90;;;21.29;85.93;99950.28;10255999;28;97284;-90
2023/07/22 08:10:09;;;;;;;4.95;3.50;;;22.60;99.90;;;21.40;86.51;99962.91;10261576;28;98465;-92
2023/07/22 08:15:13;;;;;;;6.43;4.18;;;22.70;99.90;;;21.32;84.40;99964.13;10278895;28;97339;-90
2023/07/22 08:20:17;;;;;;;5.53;3.78;;;22.70;99.90;;;21.33;82.80;99976.56;10271164;28;97098;-93
2023/07/22 08:25:21;;;;;;;10.80;4.15;;;22.70;99.90;;;21.39;83.13;99977.47;10257084;28;96733;-92
2023/07/22 08:30:25;;;;;;;6.40;4.43;;;22.80;99.90;;;21.43;79.95;99992.16;10273644;28;96596;-91
2023/07/22 08:35:29;;;;;;;5.63;3.70;;;22.80;99.90;;;21.50;77.55;99994.69;10264356;28;98884;-91
2023/07/22 08:40:41;;;;;;;4.25;3.70;;;22.90;99.80;;;21.59;76.53;100004.88;10273799;28;96983;-90
2023/07/22 08:45:49;;;;;;;4.63;3.10;;;23.00;98.90;;;21.71;75.49;99995.84;10272969;28;96625;-88
2023/07/22 08:51:13;;;;;;;3.63;2.55;;;23.10;98.40;;;21.87;74.32;100003.16;10255945;28;98251;-89
2023/07/22 08:56:17;;;;;;;5.63;3.30;;;23.30;97.70;;;22.01;71.55;100007.16;10268074;28;97587;-90
2023/07/22 09:01:22;;;;;;;3.95;2.70;;;23.40;97.30;;;22.10;73.35;100016.53;10272700;28;96553;-89
2023/07/22 09:06:26;;;;;;;3.35;2.72;;;23.60;97.20;;;22.16;71.59;100015.53;10269633;28;96594;-90
2023/07/22 09:11:30;;;;;;;3.20;2.35;;;23.70;96.70;;;22.26;66.34;100014.06;10239591;28;98549;-89
2023/07/22 09:16:36;;;;;;;4.78;2.60;;;23.70;94.80;;;22.31;67.21;100014.94;10243376;28;98870;-89
2023/07/22 09:21:40;;;;;;;5.88;2.42;;;23.90;94.50;;;22.38;68.90;100025.59;10283929;28;96492;-88
2023/07/22 09:26:44;;;;;;;4.90;2.88;;;23.90;94.50;;;22.41;68.19;100022.38;10291792;28;96872;-91
2023/07/22 09:31:52;;;;;;;2.58;2.33;;;24.00;94.50;;;22.47;67.95;100018.66;10273152;28;96561;-89
2023/07/22 09:37:03;;;;;;;7.40;2.83;;;24.00;94.10;;;22.63;64.70;100020.50;10280438;28;97411;-89
2023/07/22 09:42:08;;;;;;;3.08;2.20;;;24.10;92.90;;;22.76;64.39;100013.88;10288239;28;96919;-90
2023/07/22 09:47:12;;;;;;;3.03;1.88;;;24.30;92.50;;;22.94;62.61;100013.59;10279256;28;96498;-88
2023/07/22 09:52:16;;;;;;;3.67;2.00;;;24.50;91.70;;;23.13;62.27;100002.41;10264561;28;96542;-90
2023/07/22 09:57:22;;;;;;;3.25;1.88;;;24.70;91.50;;;23.18;62.23;99995.16;10291272;28;96938;-88
2023/07/22 10:02:26;;;;;;;3.28;1.80;;;24.70;91.00;;;23.31;62.03;99993.09;10280877;28;96660;-89
2023/07/22 10:07:33;;;;;;;2.53;1.73;;;24.90;90.50;;;23.44;59.05;99998.91;10266788;28;96867;-89
2023/07/22 10:12:42;;;;;;;;;;;25.10;88.10;;;23.51;55.83;100015.00;10280051;28;96503;-90
2023/07/22 10:17:46;;;;;;;3.50;1.70;;;25.10;82.10;;;23.54;57.03;100011.75;10262615;28;98746;-89
2023/07/22 10:22:51;;;;;;;2.05;1.30;;;25.20;85.10;;;23.70;58.43;100010.84;10281645;28;96466;-89
2023/07/22 10:27:54;;;;;;;3.08;1.40;;;25.40;86.50;;;23.89;57.68;100013.16;10275610;28;96804;-90
2023/07/22 10:32:58;;;;;;;2.67;1.50;;;25.50;85.00;;;24.06;53.01;100010.31;10273913;28;96918;-89
2023/07/22 10:38:14;;;;;;;3.13;1.30;;;25.70;82.20;;;24.12;53.51;100010.06;10228457;28;96795;-89
2023/07/22 10:43:33;;;;;;;2.13;1.40;;;25.80;80.30;;;24.30;53.79;100012.34;10271820;28;96615;-88
2023/07/22 10:48:41;;;;;;;2.57;1.40;;;25.90;80.00;;;24.48;52.70;100015.75;10260373;28;96486;-89
2023/07/22 10:53:47;;;;;;;2.85;1.48;;;26.10;79.20;;;24.54;50.04;100004.63;10263205;28;96476;-89
2023/07/22 10:58:51;;;;;;;2.40;1.50;;;26.30;76.10;;;24.64;47.74;99997.59;10276304;28;97905;-90
2023/07/22 11:04:07;;;;;;;2.10;1.10;;;26.30;74.10;;;24.69;47.00;99990.28;10293855;28;96561;-90
2023/07/22 11:09:29;;;;;;;2.70;1.20;;;26.30;70.80;;;24.67;47.18;99999.81;10300984;28;97604;-89
2023/07/22 11:14:40;;;;;;;3.53;1.60;;;26.30;70.80;;;24.59;49.45;99984.84;10256436;28;96529;-89
2023/07/22 11:19:45;;;;;;;1.63;0.90;;;26.20;72.80;;;24.68;48.07;99975.06;10278462;28;96446;-89
2023/07/22 11:24:48;;;;;;;3.83;1.13;;;26.30;71.80;;;24.95;47.71;99977.63;10276766;28;96486;-89
2023/07/22 11:29:52;;;;;;;1.85;1.25;;;26.60;71.30;;;25.16;47.11;99969.53;10276632;28;96440;-90
2023/07/22 11:34:56;;;;;;;5.90;1.33;;;26.80;70.80;;;25.24;44.85;99958.91;10260654;28;97294;-90
2023/07/22 11:40:01;;;;;;;3.28;1.30;;;27.00;67.70;;;25.27;43.65;99963.84;10275489;28;97273;-90
2023/07/22 11:45:06;;;;;;;4.25;1.50;;;27.00;66.50;;;25.41;45.94;99963.28;10280914;28;96532;-91
2023/07/22 11:50:11;;;;;;;1.88;0.93;;;27.10;68.70;;;25.36;45.45;99948.59;10276340;28;96888;-91
2023/07/22 11:55:15;;;;;;;1.60;0.90;;;27.10;67.50;;;25.44;43.58;99958.13;10275329;28;98140;-88
2023/07/22 12:00:34;;;;;;;4.20;1.05;;;27.10;65.30;;;25.49;42.64;99952.69;10291433;28;96507;-90
2023/07/22 12:05:38;;;;;;;1.63;0.88;;;27.20;64.20;;;25.64;43.96;99951.88;10274814;28;96572;-90
2023/07/22 12:10:41;;;;;;;4.03;1.00;;;27.40;65.20;;;25.75;43.74;99939.91;10275461;28;96845;-92
2023/07/22 12:16:00;;;;;;;1.60;0.98;;;27.50;64.90;;;25.96;43.77;99945.31;10274831;28;96587;-90
2023/07/22 12:21:04;;;;;;;3.22;1.30;;;27.70;64.10;;;26.10;43.64;99946.38;10305071;28;96413;-88
2023/07/22 12:26:07;;;;;;;1.08;0.90;;;27.80;64.50;;;26.22;41.10;99941.44;10298504;28;97249;-89
2023/07/22 12:31:11;;;;;;;1.48;0.90;;;28.00;63.00;;;26.38;41.96;99943.00;10276099;28;96501;-91
2023/07/22 12:36:15;;;;;;;1.50;1.10;;;28.20;62.10;;;26.58;40.89;99946.78;10276371;28;96473;-90
2023/07/22 12:41:18;;;;;;;3.50;1.48;;;28.50;61.10;;;26.78;38.77;99935.75;10264254;28;96651;-90
2023/07/22 12:46:22;;;;;;;1.30;1.00;;;28.80;59.50;;;26.70;39.05;99924.66;10270330;28;97360;-89
2023/07/22 12:51:26;;;;;;;1.30;0.95;;;28.70;58.50;;;26.86;37.41;99935.16;10274397;28;97518;-91
2023/07/22 12:56:30;;;;;;;1.20;0.80;;;28.80;57.90;;;27.13;38.44;99928.50;10272463;28;97025;-90
2023/07/22 13:01:36;;;;;;;1.90;0.93;;;29.10;57.70;;;27.40;36.07;99919.81;10254104;28;98468;-90
2023/07/22 13:06:39;;;;;;;3.58;1.00;;;29.60;56.80;;;27.57;36.50;99931.13;10256274;28;96732;-92
2023/07/22 13:11:43;;;;;;;1.88;1.00;;;29.80;55.80;;;27.63;36.42;99923.69;10269318;28;96642;-91
2023/07/22 13:16:46;;;;;;;2.13;1.10;;;29.90;55.20;;;27.89;36.98;99914.19;10257847;28;96847;-89
2023/07/22 13:21:50;;;;;;;2.42;1.10;;;30.20;55.50;;;28.36;36.41;99909.84;10274171;28;96700;-90
2023/07/22 13:26:53;;;;;;;3.78;1.40;;;30.60;55.30;;;28.60;36.01;99909.78;10279216;28;96554;-92
2023/07/22 13:31:57;;;;;;;1.00;0.90;;;30.90;54.30;;;28.92;36.08;99900.91;10260097;28;97239;-91
2023/07/22 13:37:02;;;;;;;1.40;1.20;;;31.10;54.40;;;29.25;34.53;99895.44;10279938;28;97538;-92
2023/07/22 13:42:06;;;;;;;1.63;1.10;;;31.20;53.70;;;29.49;35.28;99904.34;10278929;28;97812;-89
2023/07/22 13:47:10;;;;;;;1.17;0.88;;;31.10;54.20;;;29.36;33.36;99898.84;10276475;28;96684;-89
2023/07/22 13:52:14;;;;;;;1.50;1.00;;;30.80;53.10;;;29.24;34.70;99896.56;10280099;28;96931;-90
2023/07/22 13:57:17;;;;;;;4.28;1.27;;;30.50;53.60;;;29.10;34.62;99895.72;10278882;28;96743;-90
2023/07/22 14:02:21;;;;;;;2.50;1.20;;;30.30;53.90;;;28.97;33.51;99905.50;10260669;28;96718;-91
2023/07/22 14:07:25;;;;;;;1.15;0.90;;;30.10;53.10;;;28.71;35.32;99905.00;10275257;28;96729;-90
2023/07/22 14:12:28;;;;;;;1.63;1.00;;;29.90;53.70;;;28.37;35.07;99892.34;10271610;28;97865;-90
2023/07/22 14:17:32;;;;;;;2.03;1.30;;;29.70;53.40;;;28.24;35.34;99906.69;10277851;28;96549;-89
2023/07/22 14:22:36;;;;;;;2.42;1.30;;;29.60;53.70;;;28.20;34.97;99903.72;10295993;28;96484;-90
2023/07/22 14:27:41;;;;;;;2.53;1.65;;;29.70;53.20;;;28.07;34.86;99909.06;10298930;28;96716;-92
2023/07/22 14:32:44;;;;;;;2.30;1.08;;;29.60;53.10;;;28.10;35.85;99890.19;10290149;28;96675;-89
2023/07/22 14:37:48;;;;;;;2.40;1.20;;;29.70;53.40;;;28.48;34.99;99887.53;10262339;28;96564;-90
2023/07/22 14:42:51;;;;;;;1.38;1.08;;;30.20;53.00;;;28.63;33.71;99886.53;10277479;28;96793;-91
2023/07/22 14:47:55;;;;;;;1.40;1.13;;;30.50;52.00;;;28.53;34.13;99885.56;10276562;28;97016;-96
2023/07/22 14:52:58;;;;;;;1.83;1.05;;;30.60;51.50;;;28.52;34.33;99889.41;10252856;28;96832;-91
2023/07/22 14:58:02;;;;;;;2.70;1.10;;;30.70;51.90;;;28.86;33.44;99866.50;10259731;28;98657;-93
2023/07/22 15:03:06;;;;;;;2.70;0.90;;;31.20;50.90;;;29.18;33.01;99859.47;10285695;28;96623;-92
2023/07/22 15:08:09;;;;;;;2.42;1.20;;;31.50;50.40;;;29.41;32.36;99883.13;10269533;28;96848;-94
2023/07/22 15:13:13;;;;;;;1.13;1.00;;;31.60;49.80;;;29.58;31.32;99874.38;10275864;28;97107;-93
2023/07/22 15:18:16;;;;;;;2.83;1.40;;;31.60;49.10;;;29.37;31.82;99867.59;10252301;28;96642;-95
2023/07/22 15:23:20;;;;;;;2.83;1.08;;;31.20;49.20;;;29.14;31.23;99863.91;10257240;28;96745;-94
2023/07/22 15:28:27;;;;;;;1.35;1.10;;;31.00;48.80;;;29.21;31.38;99864.31;10266788;28;97596;-95
2023/07/22 15:33:30;;;;;;;1.52;1.13;;;31.00;48.80;;;29.43;30.70;99858.19;10274345;28;96591;-93
2023/07/22 15:38:34;;;;;;;1.55;1.10;;;31.20;48.80;;;29.56;30.56;99860.97;10277058;28;96666;-91
2023/07/22 15:43:38;;;;;;;7.30;1.40;;;31.40;48.10;;;29.67;29.96;99863.53;10271361;28;96600;-94
2023/07/22 15:48:41;;;;;;;1.75;1.17;;;31.40;47.70;;;29.63;30.46;99873.47;10272470;28;97135;-95
2023/07/22 15:53:45;;;;;;;1.98;1.25;;;31.40;48.10;;;29.61;30.53;99879.25;10267219;28;96675;-96
2023/07/22 15:58:48;;;;;;;1.48;0.90;;;31.30;48.20;;;29.51;30.79;99887.63;10279213;28;96713;-95
2023/07/22 16:03:52;;;;;;;1.85;1.10;;;31.10;48.60;;;29.05;30.89;99885.66;10276028;28;98435;-94
2023/07/22 16:08:56;;;;;;;4.30;1.27;;;30.60;48.00;;;28.67;31.72;99879.34;10272532;28;98086;-91
2023/07/22 16:13:59;;;;;;;2.95;1.33;;;30.10;48.70;;;28.14;31.63;99882.25;10260179;28;96625;-92
2023/07/22 16:19:03;;;;;;;2.25;1.33;;;29.60;48.60;;;27.40;33.41;99893.34;10273731;28;96592;-92
2023/07/22 16:24:06;;;;;;;1.85;1.10;;;28.80;49.60;;;26.82;33.16;99881.50;10273267;28;96603;-92
2023/07/22 16:29:10;;;;;;;1.73;1.20;;;28.20;49.60;;;26.38;34.90;99890.44;10276032;28;96635;-92
2023/07/22 16:34:18;;;;;;;2.33;1.38;;;27.70;50.60;;;26.06;35.93;99886.22;10256441;28;96654;-91
2023/07/22 16:39:22;;;;;;;2.65;1.30;;;27.40;51.50;;;25.82;37.08;99875.13;10272415;28;96559;-90
2023/07/22 16:44:26;;;;;;;1.88;1.33;;;27.10;52.80;;;25.65;37.68;99888.19;10273556;28;97362;-91
2023/07/22 16:49:29;;;;;;;1.65;1.05;;;27.00;53.20;;;25.53;39.14;99868.63;10274964;28;96437;-91
2023/07/22 16:54:33;;;;;;;1.60;1.30;;;26.80;54.10;;;25.41;39.94;99868.09;10268186;28;98628;-90
2023/07/22 16:59:37;;;;;;;2.00;1.20;;;26.80;55.10;;;25.31;41.15;99886.06;10271541;28;96708;-91
2023/07/22 17:04:41;;;;;;;2.20;1.50;;;26.70;55.70;;;25.17;41.78;99884.97;10271254;28;97191;-91
2023/07/22 17:09:44;;;;;;;2.10;1.15;;;26.60;56.20;;;25.02;41.84;99888.47;10265446;28;98045;-94
2023/07/22 17:14:48;;;;;;;4.57;1.20;;;26.40;56.60;;;24.77;44.08;99886.53;10248801;28;98042;-90
2023/07/22 17:19:52;;;;;;;2.28;1.20;;;26.20;58.50;;;24.66;45.57;99889.50;10261834;28;96696;-92
2023/07/22 17:24:55;;;;;;;2.38;1.38;;;26.10;59.50;;;24.52;46.34;99894.59;10255442;28;97609;-91
2023/07/22 17:29:59;;;;;;;3.38;1.48;;;25.90;60.20;;;24.37;46.98;99897.28;10271683;28;96997;-90
2023/07/22 17:35:04;;;;;;;2.35;1.30;;;25.70;60.70;;;24.19;46.03;99891.22;10261360;28;97631;-90
2023/07/22 17:40:08;;;;;;;2.80;1.58;;;25.50;60.60;;;24.00;45.75;99876.47;10271657;28;97350;-91
2023/07/22 17:45:12;;;;;;;2.90;1.60;;;25.40;60.70;;;23.79;46.83;99878.25;10268823;28;98547;-91
2023/07/22 17:50:16;;;;;;;2.03;1.20;;;25.10;61.20;;;23.56;47.29;99887.56;10261640;28;96719;-91
2023/07/22 17:55:20;;;;;;;2.20;1.10;;;24.90;61.90;;;23.41;48.32;99877.44;10253417;28;97366;-91
2023/07/22 18:00:23;;;;;;;1.73;1.00;;;24.70;62.60;;;23.32;49.53;99891.72;10271896;28;96722;-91
2023/07/22 18:05:29;;;;;;;3.78;2.75;;;24.60;63.10;;;23.13;50.46;99916.50;10247791;28;98384;-91
2023/07/22 18:10:35;;;;;;;3.38;1.63;;;24.50;64.10;;;22.84;50.84;99901.53;10267997;28;97591;-94
2023/07/22 18:15:39;;;;;;;3.67;1.33;;;24.30;64.60;;;22.63;50.57;99914.06;10250227;28;97254;-94
2023/07/22 18:20:47;;;;;;;3.97;1.42;;;24.00;64.90;;;22.43;51.05;99920.91;10278051;28;97095;-95
2023/07/22 18:25:52;;;;;;;2.67;1.35;;;23.70;65.40;;;22.27;52.21;99918.25;10291374;28;98031;-88
2023/07/22 18:30:55;;;;;;;2.63;1.55;;;23.60;66.10;;;22.08;52.67;99915.81;10288355;28;98167;-88
2023/07/22 18:36:00;;;;;;;3.78;1.40;;;23.40;66.60;;;21.97;53.62;99934.84;10275464;28;96654;-90
2023/07/22 18:41:04;;;;;;;2.85;1.52;;;23.30;67.40;;;21.82;55.62;99944.38;10276605;28;98721;-88
2023/07/22 18:46:20;;;;;;;2.42;1.40;;;23.10;69.00;;;21.63;57.26;99953.81;10271928;28;99091;-89
2023/07/22 18:51:31;;;;;;;2.97;1.45;;;23.00;70.00;;;21.51;56.25;99961.19;10264610;28;96715;-89
2023/07/22 18:56:34;;;;;;;4.30;1.88;;;22.80;69.70;;;21.35;54.61;99977.16;10275436;28;97295;-92
2023/07/22 19:01:38;;;;;;;3.53;1.60;;;22.70;69.10;;;21.32;54.36;99990.34;10284601;28;96771;-89
2023/07/22 19:06:43;;;;;;;3.10;1.48;;;22.60;68.60;;;21.19;55.26;99986.03;10283393;28;96707;-90
2023/07/22 19:11:47;;;;;;;4.07;1.48;;;22.50;69.30;;;21.10;57.15;99990.16;10259981;28;96864;-90
2023/07/22 19:16:55;;;;;;;2.72;1.63;;;22.40;70.70;;;21.03;57.99;100009.22;10273627;28;96656;-89
2023/07/22 19:21:59;;;;;;;2.35;1.40;;;22.30;71.60;;;20.96;57.58;100016.66;10276304;28;96799;-89
2023/07/22 19:27:02;;;;;;;2.17;1.30;;;22.20;71.60;;;20.96;56.51;100008.56;10290879;28;96798;-89
2023/07/22 19:32:07;;;;;;;3.28;1.40;;;22.20;71.00;;;20.99;55.26;100010.78;10276564;28;97306;-89
2023/07/22 19:37:10;;;;;;;2.55;1.38;;;22.20;70.40;;;21.01;54.66;100011.34;10290138;28;96749;-91
2023/07/22 19:42:15;;;;;;;2.10;1.40;;;22.20;69.70;;;21.06;53.87;100011.47;10281500;28;96773;-90
2023/07/22 19:47:19;;;;;;;3.22;1.25;;;22.30;69.40;;;21.10;54.49;100012.59;10283405;28;96915;-90
2023/07/22 19:52:25;;;;;;;2.35;1.20;;;22.30;69.40;;;21.09;54.03;100023.66;10292160;28;97126;-89
2023/07/22 19:57:29;;;;;;;2.38;1.60;;;22.30;70.00;;;21.04;54.32;100024.38;10289981;28;98024;-91
2023/07/22 20:02:32;;;;;;;3.10;1.38;;;22.30;69.30;;;20.98;53.56;100019.94;10272582;28;97536;-89
2023/07/22 20:07:36;;;;;;;2.45;1.02;;;22.20;68.90;;;21.00;53.68;100027.81;10273583;28;98551;-92
2023/07/22 20:12:40;;;;;;;3.00;1.30;;;22.20;68.80;;;20.96;53.64;100030.16;10272432;28;96726;-89
2023/07/22 20:17:43;;;;;;;3.17;1.30;;;22.20;68.90;;;20.99;53.70;100036.94;10288317;28;96705;-89
2023/07/22 20:22:48;;;;;;;2.25;1.30;;;22.20;68.90;;;21.01;53.92;100051.06;10269125;28;96664;-89
2023/07/22 20:27:53;;;;;;;2.08;1.40;;;22.20;69.40;;;20.98;53.66;100044.25;10262366;28;96892;-88
2023/07/22 20:32:58;;;;;;;2.67;1.52;;;22.20;69.20;;;20.98;53.11;100049.63;10250908;28;96761;-89
2023/07/22 20:38:01;;;;;;;1.95;1.38;;;22.20;68.80;;;21.00;53.64;100066.44;10252359;28;96805;-89
2023/07/22 20:43:05;;;;;;;2.28;1.20;;;22.20;68.80;;;21.00;53.70;100063.75;10288519;28;96797;-89
2023/07/22 20:48:08;;;;;;;2.03;1.10;;;22.20;68.70;;;21.05;54.06;100054.91;10272290;28;96603;-88
2023/07/22 20:53:12;;;;;;;2.10;1.15;;;22.30;69.10;;;21.11;53.75;100059.34;10272486;28;98355;-88
2023/07/22 20:58:16;;;;;;;2.58;1.20;;;22.30;69.20;;;21.10;53.44;100058.53;10283205;28;97061;-88